Time;durP1;ratioP1;P1;durP2;ratioP2;P2;SDS_P1;SDS_P2;PMS_P1;PMS_P2;Temp;Humidity;BMP_temperature;BMP_pressure;BME280_temperature;BME280_humidity;BME280_pressure;Samples;Min_cycle;Max_cycle;Signal;HPM_P1;HPM_P2
2022/06/24 00:00:44;;;;;;;4.90;2.72;;;26.10;95.30;;;;;;5045909;28;20299;-35
2022/06/24 00:03:23;;;;;;;3.13;1.90;;;26.00;96.00;;;;;;5047285;28;20192;-35
2022/06/24 00:05:55;;;;;;;4.60;2.35;;;26.00;95.60;;;;;;5045738;28;20586;-34
2022/06/24 00:08:25;;;;;;;6.85;2.30;;;25.80;95.30;;;;;;5047528;28;20227;-34
2022/06/24 00:11:10;;;;;;;6.13;2.33;;;25.70;95.20;;;;;;5046943;28;20212;-34
2022/06/24 00:13:39;;;;;;;5.25;2.25;;;25.70;95.60;;;;;;5047467;28;20220;-34
2022/06/24 00:16:06;;;;;;;5.63;2.55;;;25.60;95.70;;;;;;5047267;28;20227;-34
2022/06/24 00:18:38;;;;;;;3.45;2.33;;;25.50;95.40;;;;;;5046817;28;20227;-34
2022/06/24 00:21:14;;;;;;;5.57;2.20;;;25.50;95.60;;;;;;5046874;28;20216;-34
2022/06/24 00:23:44;;;;;;;2.92;2.20;;;25.30;96.20;;;;;;5046679;28;20192;-34
2022/06/24 00:26:14;;;;;;;4.10;2.22;;;25.30;95.80;;;;;;5046418;28;20230;-34
2022/06/24 00:28:44;;;;;;;6.53;2.20;;;25.20;96.00;;;;;;5045944;28;20212;-45
2022/06/24 00:31:14;;;;;;;4.35;2.45;;;25.20;95.90;;;;;;5047233;28;20238;-46
2022/06/24 00:33:46;;;;;;;3.22;2.63;;;25.10;96.40;;;;;;5046337;28;20208;-45
2022/06/24 00:36:13;;;;;;;5.65;2.58;;;25.10;96.70;;;;;;5046064;28;20254;-45
2022/06/24 00:38:41;;;;;;;4.07;2.60;;;25.10;96.80;;;;;;5047088;28;20208;-44
2022/06/24 00:41:14;;;;;;;3.38;2.00;;;25.10;97.10;;;;;;5046393;28;20188;-45
2022/06/24 00:43:44;;;;;;;4.63;2.28;;;25.10;97.10;;;;;;5045676;28;20228;-33
2022/06/24 00:46:24;;;;;;;3.50;2.20;;;25.10;97.10;;;;;;5047973;28;20584;-33
2022/06/24 00:48:55;;;;;;;4.18;2.55;;;25.10;97.30;;;;;;5042702;28;20303;-33
2022/06/24 00:51:31;;;;;;;4.55;2.63;;;25.10;96.80;;;;;;5044507;28;20220;-33
2022/06/24 00:54:08;;;;;;;3.17;2.42;;;25.00;96.80;;;;;;5046187;28;20219;-33
2022/06/24 00:56:39;;;;;;;2.42;2.22;;;25.00;97.00;;;;;;5045093;28;20219;-33
2022/06/24 00:59:15;;;;;;;4.05;2.33;;;24.90;96.80;;;;;;5045153;28;20311;-33
2022/06/24 01:01:43;;;;;;;3.50;2.78;;;24.80;96.90;;;;;;5046938;28;20762;-33
2022/06/24 01:04:11;;;;;;;2.90;2.13;;;24.80;96.80;;;;;;5041690;28;20196;-33
2022/06/24 01:06:44;;;;;;;4.90;2.28;;;24.70;96.80;;;;;;5046060;28;20613;-33
2022/06/24 01:09:15;;;;;;;6.15;2.67;;;24.70;96.70;;;;;;5045897;28;20308;-33
2022/06/24 01:11:47;;;;;;;5.10;2.83;;;24.70;97.10;;;;;;5045169;28;20584;-33
2022/06/24 01:14:17;;;;;;;2.65;2.05;;;24.60;97.00;;;;;;5046092;28;21000;-33
2022/06/24 01:16:45;;;;;;;8.57;2.70;;;24.60;97.10;;;;;;5045768;28;20232;-33
2022/06/24 01:19:15;;;;;;;4.85;2.47;;;24.60;96.80;;;;;;5045609;28;20310;-33
2022/06/24 01:21:47;;;;;;;4.50;2.92;;;24.50;96.90;;;;;;5045803;28;20211;-34
2022/06/24 01:24:22;;;;;;;6.15;3.22;;;24.50;97.30;;;;;;5045493;28;20289;-34
2022/06/24 01:26:55;;;;;;;5.18;3.05;;;24.50;97.40;;;;;;5044333;28;20319;-34
2022/06/24 01:29:23;;;;;;;4.35;3.58;;;24.40;97.10;;;;;;5040998;28;20559;-34
2022/06/24 01:31:56;;;;;;;5.13;3.72;;;24.40;97.10;;;;;;5044596;28;20249;-34
2022/06/24 01:34:24;;;;;;;6.05;4.25;;;24.40;97.30;;;;;;5036209;28;20222;-35
2022/06/24 01:36:54;;;;;;;4.32;3.33;;;24.30;97.20;;;;;;5043835;28;20306;-35
2022/06/24 01:39:24;;;;;;;5.90;4.40;;;24.30;97.00;;;;;;5042586;28;20200;-46
2022/06/24 01:41:52;;;;;;;5.45;3.83;;;24.30;97.40;;;;;;5044454;28;20203;-45
2022/06/24 01:44:22;;;;;;;7.55;4.05;;;24.30;97.40;;;;;;5045822;28;20216;-44
2022/06/24 01:46:55;;;;;;;5.50;4.30;;;24.30;97.40;;;;;;5041752;28;20633;-45
2022/06/24 01:49:24;;;;;;;7.00;4.60;;;24.30;97.50;;;;;;5035824;28;20224;-45
2022/06/24 01:51:56;;;;;;;7.82;4.65;;;24.20;97.60;;;;;;5046118;28;20227;-46
2022/06/24 01:54:24;;;;;;;6.47;4.85;;;24.20;97.50;;;;;;5047284;28;20564;-45
2022/06/24 01:56:53;;;;;;;7.35;4.97;;;24.20;97.40;;;;;;5049752;28;20216;-45
2022/06/24 01:59:25;;;;;;;5.50;4.30;;;24.10;97.40;;;;;;5049527;28;20212;-46
2022/06/24 02:01:55;;;;;;;6.72;4.65;;;24.10;97.50;;;;;;5048634;28;20208;-45
2022/06/24 02:04:27;;;;;;;5.80;4.75;;;24.10;97.60;;;;;;5040466;28;20211;-46
2022/06/24 02:06:54;;;;;;;7.10;4.53;;;24.10;97.60;;;;;;5049561;28;20222;-45
2022/06/24 02:09:22;;;;;;;5.80;5.15;;;24.10;97.60;;;;;;5047778;28;20607;-46
2022/06/24 02:14:35;;;;;;;6.13;5.10;;;24.00;97.70;;;;;;5042654;28;20311;-45
2022/06/24 02:17:04;;;;;;;6.63;5.53;;;24.00;97.80;;;;;;5049186;28;20330;-46
2022/06/24 02:19:34;;;;;;;6.80;5.43;;;24.00;97.90;;;;;;5048851;28;20570;-46
2022/06/24 02:22:01;;;;;;;8.45;6.20;;;24.00;97.80;;;;;;5049664;28;20231;-46
2022/06/24 02:24:28;;;;;;;8.55;5.88;;;24.00;97.80;;;;;;5047712;28;20207;-46
2022/06/24 02:27:00;;;;;;;7.30;5.57;;;24.00;97.90;;;;;;5049338;28;20254;-47
2022/06/24 02:29:28;;;;;;;7.85;5.85;;;24.00;97.90;;;;;;5041532;28;20210;-46
2022/06/24 02:31:56;;;;;;;8.68;7.07;;;23.90;97.80;;;;;;5049334;28;20220;-46
2022/06/24 02:34:25;;;;;;;8.70;6.47;;;23.90;97.90;;;;;;5047022;28;20204;-46
2022/06/24 02:36:52;;;;;;;8.52;6.88;;;23.90;98.00;;;;;;5048972;28;20244;-46
2022/06/24 02:39:24;;;;;;;6.43;5.80;;;23.90;97.80;;;;;;5048356;28;20246;-46
2022/06/24 02:41:54;;;;;;;9.07;6.05;;;23.90;98.10;;;;;;5049178;28;20274;-46
2022/06/24 02:44:24;;;;;;;8.25;6.15;;;23.90;98.00;;;;;;5048691;28;20211;-35
2022/06/24 02:46:56;;;;;;;8.07;6.30;;;23.90;98.10;;;;;;5049001;28;20207;-36
2022/06/24 02:49:26;;;;;;;7.68;5.03;;;23.90;97.90;;;;;;5048233;28;20240;-35
2022/06/24 02:51:56;;;;;;;7.68;4.68;;;23.90;98.20;;;;;;5046904;28;20678;-35
2022/06/24 02:54:28;;;;;;;6.05;4.35;;;23.90;98.30;;;;;;5046897;28;20780;-35
2022/06/24 02:56:57;;;;;;;4.75;4.20;;;23.90;98.00;;;;;;5048605;28;20343;-35
2022/06/24 02:59:27;;;;;;;6.32;4.20;;;23.90;98.10;;;;;;5048722;28;20212;-35
2022/06/24 03:01:57;;;;;;;5.50;3.95;;;23.90;98.20;;;;;;5048197;28;20200;-35
2022/06/24 03:04:25;;;;;;;5.80;4.10;;;23.90;98.20;;;;;;5047915;28;20759;-35
2022/06/24 03:06:52;;;;;;;6.68;4.15;;;23.90;98.20;;;;;;5047499;28;20270;-36
2022/06/24 03:09:24;;;;;;;4.82;3.58;;;23.90;98.20;;;;;;5048046;28;20297;-35
2022/06/24 03:11:53;;;;;;;6.82;4.20;;;23.80;98.30;;;;;;5047904;28;20215;-35
2022/06/24 03:14:25;;;;;;;7.00;3.70;;;23.80;98.40;;;;;;5048488;28;20212;-36
2022/06/24 03:16:55;;;;;;;4.78;3.75;;;23.80;98.30;;;;;;5048141;28;20256;-35
2022/06/24 03:19:24;;;;;;;4.07;3.13;;;23.80;98.40;;;;;;5047905;28;20637;-36
2022/06/24 03:21:54;;;;;;;5.60;3.50;;;23.80;98.40;;;;;;5048281;28;20275;-36
2022/06/24 03:24:21;;;;;;;4.57;3.28;;;23.70;98.40;;;;;;5047510;28;20228;-36
2022/06/24 03:26:53;;;;;;;6.10;3.33;;;23.70;98.40;;;;;;5046941;28;20337;-36
2022/06/24 03:29:20;;;;;;;4.72;3.40;;;23.70;98.60;;;;;;5062995;28;20789;-36
2022/06/24 03:31:52;;;;;;;5.35;4.10;;;23.70;98.70;;;;;;5048203;28;20212;-36
2022/06/24 03:34:19;;;;;;;4.07;3.10;;;23.70;98.80;;;;;;5047461;28;20235;-36
2022/06/24 03:36:47;;;;;;;4.38;2.97;;;23.60;98.70;;;;;;5048652;28;20240;-35
2022/06/24 03:39:19;;;;;;;3.78;3.20;;;23.60;98.90;;;;;;5048437;28;20235;-35
2022/06/24 03:41:49;;;;;;;5.07;2.75;;;23.60;98.90;;;;;;5048621;28;20824;-36
2022/06/24 03:44:16;;;;;;;3.28;2.97;;;23.60;98.80;;;;;;5048516;28;20221;-35
2022/06/24 03:46:44;;;;;;;3.35;2.38;;;23.60;98.90;;;;;;5047327;28;20687;-35
2022/06/24 03:49:14;;;;;;;3.45;2.85;;;23.60;98.90;;;;;;5048227;28;20754;-36
2022/06/24 03:51:44;;;;;;;3.15;2.85;;;23.60;99.00;;;;;;5047016;28;20215;-35
2022/06/24 03:54:12;;;;;;;3.83;3.10;;;23.60;99.00;;;;;;5048207;28;20278;-35
2022/06/24 03:56:41;;;;;;;4.07;3.20;;;23.60;99.00;;;;;;5048340;28;20702;-35
2022/06/24 03:59:11;;;;;;;4.22;2.90;;;23.50;98.90;;;;;;5048226;28;20201;-35
2022/06/24 04:01:39;;;;;;;4.38;2.70;;;23.50;98.80;;;;;;5047967;28;20250;-36
2022/06/24 04:04:06;;;;;;;3.83;2.85;;;23.50;98.90;;;;;;5044656;28;20559;-35
2022/06/24 04:06:38;;;;;;;4.13;3.08;;;23.50;98.90;;;;;;5046673;28;20208;-35
2022/06/24 04:09:06;;;;;;;4.90;3.08;;;23.50;98.90;;;;;;5048260;28;20253;-36
2022/06/24 04:11:33;;;;;;;4.22;2.97;;;23.50;99.00;;;;;;5048132;28;20212;-36
2022/06/24 04:14:05;;;;;;;6.10;3.20;;;23.50;98.90;;;;;;5048768;28;20579;-35
2022/06/24 04:16:32;;;;;;;6.93;2.80;;;23.50;98.90;;;;;;5047770;28;20215;-35
2022/06/24 04:19:04;;;;;;;3.83;2.97;;;23.40;98.80;;;;;;5046828;28;20212;-36
2022/06/24 04:21:34;;;;;;;5.90;3.00;;;23.40;99.30;;;;;;5046616;28;20197;-36
2022/06/24 04:24:01;;;;;;;5.38;3.30;;;23.40;99.00;;;;;;5047955;28;20208;-36
2022/06/24 04:26:29;;;;;;;4.43;3.28;;;23.40;99.10;;;;;;5047752;28;20252;-36
2022/06/24 04:28:56;;;;;;;6.00;3.40;;;23.40;99.20;;;;;;5048102;28;20228;-35
2022/06/24 04:31:25;;;;;;;4.72;3.38;;;23.40;99.10;;;;;;5048054;28;20749;-35
2022/06/24 04:33:55;;;;;;;4.63;3.83;;;23.40;99.00;;;;;;5048141;28;20200;-36
2022/06/24 04:36:23;;;;;;;6.95;3.00;;;23.40;99.10;;;;;;5047799;28;20791;-35
2022/06/24 04:38:55;;;;;;;9.15;3.53;;;23.40;99.10;;;;;;5048116;28;20208;-36
2022/06/24 04:41:22;;;;;;;5.55;3.33;;;23.40;99.30;;;;;;5041075;28;20621;-35
2022/06/24 04:43:53;;;;;;;6.80;3.20;;;23.30;99.20;;;;;;5047723;28;20753;-35
2022/06/24 04:46:21;;;;;;;3.72;3.05;;;23.40;99.30;;;;;;5048068;28;20988;-36
2022/06/24 04:48:50;;;;;;;6.13;3.50;;;23.40;99.60;;;;;;5047511;28;20222;-35
2022/06/24 04:51:18;;;;;;;3.70;2.70;;;23.30;99.50;;;;;;5047261;28;20215;-35
2022/06/24 04:53:45;;;;;;;4.90;3.10;;;23.30;99.40;;;;;;5045707;28;20251;-35
2022/06/24 04:56:12;;;;;;;4.13;3.22;;;23.30;99.30;;;;;;5046966;28;20310;-35
2022/06/24 04:58:39;;;;;;;4.68;3.92;;;23.30;99.30;;;;;;5045601;28;20228;-35
2022/06/24 05:01:09;;;;;;;3.45;3.15;;;23.30;99.40;;;;;;5045721;28;20216;-35
2022/06/24 05:03:36;;;;;;;4.28;3.40;;;23.30;99.60;;;;;;5041648;28;20632;-35
2022/06/24 05:06:03;;;;;;;4.70;3.40;;;23.30;99.70;;;;;;5045704;28;20299;-35
2022/06/24 05:08:35;;;;;;;5.72;3.80;;;23.20;99.70;;;;;;5047686;28;20208;-35
2022/06/24 05:11:25;;;;;;;6.85;3.90;;;23.20;99.60;;;;;;5044182;28;20215;-36
2022/06/24 05:13:52;;;;;;;9.05;5.47;;;23.20;99.60;;;;;;5047637;28;20196;-35
2022/06/24 05:16:19;;;;;;;10.85;5.68;;;23.20;99.60;;;;;;5044786;28;20208;-35
2022/06/24 05:19:12;;;;;;;13.57;5.68;;;23.20;99.60;;;;;;5047333;28;20269;-36
2022/06/24 05:21:40;;;;;;;12.55;6.25;;;23.20;99.70;;;;;;5047905;28;20216;-36
2022/06/24 05:24:10;;;;;;;12.15;6.20;;;23.20;99.70;;;;;;5046969;28;20199;-36
2022/06/24 05:26:41;;;;;;;7.68;5.90;;;23.20;99.70;;;;;;5047293;28;20701;-36
2022/06/24 05:29:09;;;;;;;9.48;5.43;;;23.10;99.80;;;;;;5046079;28;20203;-35
2022/06/24 05:31:39;;;;;;;6.90;5.57;;;23.10;99.80;;;;;;5049977;28;20215;-35
2022/06/24 05:34:09;;;;;;;8.90;5.65;;;23.10;99.80;;;;;;5050249;28;20246;-35
2022/06/24 05:36:36;;;;;;;8.52;5.60;;;23.10;99.80;;;;;;5050245;28;20281;-36
2022/06/24 05:39:05;;;;;;;9.02;5.82;;;23.10;99.90;;;;;;5050621;28;20273;-35
2022/06/24 05:41:33;;;;;;;7.13;5.32;;;23.10;99.90;;;;;;5050543;28;20200;-36
2022/06/24 05:44:01;;;;;;;10.93;6.10;;;23.10;99.90;;;;;;5043900;28;20257;-36
2022/06/24 05:46:30;;;;;;;13.52;5.97;;;23.10;99.80;;;;;;5044586;28;20219;-35
2022/06/24 05:48:58;;;;;;;9.85;5.72;;;23.10;99.90;;;;;;5050017;28;20208;-36
2022/06/24 05:51:28;;;;;;;8.90;5.32;;;23.20;99.90;;;;;;5050725;28;20766;-35
2022/06/24 05:56:46;;;;;;;4.55;4.15;;;23.20;99.90;;;;;;5035908;28;20247;-35
2022/06/24 05:59:18;;;;;;;6.28;4.10;;;23.10;99.90;;;;;;5037424;28;20208;-35
2022/06/24 06:01:50;;;;;;;4.53;3.65;;;23.10;99.90;;;;;;5057252;28;20208;-35
2022/06/24 06:04:19;;;;;;;7.63;4.43;;;23.20;99.90;;;;;;5043474;28;20218;-35
2022/06/24 06:06:50;;;;;;;7.07;4.22;;;23.10;99.90;;;;;;5044778;28;20829;-35
2022/06/24 06:09:20;;;;;;;4.75;4.07;;;23.10;99.90;;;;;;5048928;28;20192;-35
2022/06/24 06:11:52;;;;;;;8.43;4.07;;;23.20;99.90;;;;;;5049557;28;20286;-35
2022/06/24 06:14:19;;;;;;;6.22;3.55;;;23.20;99.90;;;;;;5031130;28;20718;-36
2022/06/24 06:16:48;;;;;;;5.18;3.60;;;23.20;99.90;;;;;;5045958;28;20228;-35
2022/06/24 06:19:18;;;;;;;5.60;3.97;;;23.20;99.90;;;;;;5045698;28;20200;-35
2022/06/24 06:21:47;;;;;;;7.25;3.67;;;23.20;99.90;;;;;;5047977;28;20208;-35
2022/06/24 06:24:17;;;;;;;10.35;4.68;;;23.30;99.90;;;;;;5046031;28;20660;-35
2022/06/24 06:26:48;;;;;;;6.43;3.85;;;23.30;99.90;;;;;;5041969;28;20200;-46
2022/06/24 06:29:17;;;;;;;4.60;3.50;;;23.30;99.90;;;;;;5043645;28;20211;-46
2022/06/24 06:31:49;;;;;;;5.07;3.65;;;23.40;99.90;;;;;;5044520;28;21110;-46
2022/06/24 06:34:19;;;;;;;7.05;4.20;;;23.40;99.90;;;;;;5039294;28;20204;-46
2022/06/24 06:36:46;;;;;;;10.45;5.05;;;23.40;99.90;;;;;;5044283;28;20246;-46
2022/06/24 06:39:16;;;;;;;7.20;3.95;;;23.40;99.90;;;;;;5047431;28;20324;-46
2022/06/24 06:41:46;;;;;;;6.90;3.40;;;23.50;99.90;;;;;;5045635;28;20710;-47
2022/06/24 06:44:16;;;;;;;3.80;3.15;;;23.50;99.90;;;;;;5045294;28;20251;-47
2022/06/24 06:46:43;;;;;;;5.57;3.10;;;23.60;99.90;;;;;;5045369;28;20670;-47
2022/06/24 06:49:13;;;;;;;5.95;3.70;;;23.60;99.90;;;;;;5045150;28;20243;-46
2022/06/24 06:51:40;;;;;;;5.40;3.55;;;23.70;99.90;;;;;;5046088;28;20208;-46
2022/06/24 06:54:07;;;;;;;5.45;3.33;;;23.80;99.90;;;;;;5046712;28;20206;-46
2022/06/24 06:56:34;;;;;;;6.53;3.70;;;23.80;99.90;;;;;;5052804;28;20208;-47
2022/06/24 06:59:07;;;;;;;7.20;3.83;;;23.90;99.90;;;;;;5045675;28;20222;-46
2022/06/24 07:01:36;;;;;;;5.90;3.85;;;23.90;99.90;;;;;;5042588;28;20204;-46
2022/06/24 07:04:06;;;;;;;4.50;3.95;;;24.00;99.90;;;;;;5048192;28;20196;-46
2022/06/24 07:06:36;;;;;;;6.90;3.45;;;24.00;99.90;;;;;;5043714;28;20694;-46
2022/06/24 07:09:03;;;;;;;4.15;3.35;;;24.10;99.90;;;;;;5044778;28;20317;-46
2022/06/24 07:11:32;;;;;;;3.15;2.90;;;24.10;99.90;;;;;;5043014;28;20204;-47
2022/06/24 07:14:00;;;;;;;5.43;3.45;;;24.10;99.90;;;;;;5047694;28;20670;-47
2022/06/24 07:16:29;;;;;;;6.10;3.03;;;24.10;99.90;;;;;;5046220;28;20208;-46
2022/06/24 07:18:59;;;;;;;5.15;3.33;;;24.20;99.90;;;;;;5045261;28;20231;-47
2022/06/24 07:21:29;;;;;;;4.18;3.28;;;24.20;99.90;;;;;;5047846;28;20675;-46
2022/06/24 07:23:57;;;;;;;3.85;3.13;;;24.20;99.90;;;;;;5046713;28;20582;-47
2022/06/24 07:26:24;;;;;;;3.58;3.28;;;24.30;99.90;;;;;;5038168;28;20192;-46
2022/06/24 07:28:54;;;;;;;7.78;3.22;;;24.30;99.90;;;;;;5039713;28;20236;-46
2022/06/24 07:31:21;;;;;;;6.28;3.42;;;24.30;99.90;;;;;;5047968;28;20231;-47
2022/06/24 07:33:50;;;;;;;3.55;2.55;;;24.30;99.90;;;;;;5047186;28;20262;-46
2022/06/24 07:36:18;;;;;;;4.30;2.38;;;24.30;99.90;;;;;;5041587;28;20238;-46
2022/06/24 07:38:45;;;;;;;8.18;3.20;;;24.30;99.90;;;;;;5044152;28;20228;-47
2022/06/24 07:41:17;;;;;;;3.40;2.85;;;24.30;99.90;;;;;;5047207;28;20212;-46
2022/06/24 07:43:50;;;;;;;5.40;3.25;;;24.30;99.90;;;;;;5044568;28;20278;-47
2022/06/24 07:46:17;;;;;;;5.15;2.53;;;24.30;99.90;;;;;;5040853;28;20655;-47
2022/06/24 07:48:45;;;;;;;6.55;3.00;;;24.40;99.90;;;;;;5038296;28;20244;-47
2022/06/24 07:51:14;;;;;;;4.25;2.50;;;24.40;99.90;;;;;;5040720;28;20300;-36
2022/06/24 07:53:45;;;;;;;5.30;2.60;;;24.40;99.90;;;;;;5044765;28;20266;-36
2022/06/24 07:59:06;;;;;;;4.40;3.00;;;24.50;99.90;;;;;;5040736;28;20220;-36
2022/06/24 08:01:34;;;;;;;16.80;3.95;;;24.50;99.90;;;;;;5046119;28;20196;-36
2022/06/24 08:04:07;;;;;;;4.60;2.63;;;24.60;99.90;;;;;;5047032;28;20203;-36
2022/06/24 08:06:40;;;;;;;5.70;3.35;;;24.70;99.90;;;;;;5049405;28;20218;-36
2022/06/24 08:09:10;;;;;;;7.88;2.67;;;24.70;99.90;;;;;;5045170;28;20270;-36
2022/06/24 08:11:37;;;;;;;4.95;2.78;;;24.80;99.90;;;;;;5034433;28;20212;-37
2022/06/24 08:14:05;;;;;;;6.32;3.17;;;24.90;99.90;;;;;;5045651;28;20287;-36
2022/06/24 08:16:32;;;;;;;5.47;2.80;;;24.90;99.90;;;;;;5047401;28;20294;-36
2022/06/24 08:19:02;;;;;;;5.03;2.33;;;25.00;99.90;;;;;;5045516;28;20216;-36
2022/06/24 08:21:32;;;;;;;8.80;3.15;;;25.00;99.90;;;;;;5045754;28;20257;-35
2022/06/24 08:24:01;;;;;;;8.23;2.90;;;25.00;99.90;;;;;;5043988;28;20204;-47
2022/06/24 08:26:31;;;;;;;4.97;2.83;;;25.00;99.90;;;;;;5039850;28;20215;-47
2022/06/24 08:28:58;;;;;;;3.75;2.88;;;25.00;99.90;;;;;;5046617;28;20287;-48
2022/06/24 08:31:28;;;;;;;4.53;2.08;;;25.00;99.90;;;;;;5042961;28;20219;-47
2022/06/24 08:33:58;;;;;;;1.42;1.10;;;25.00;99.90;;;;;;5043867;28;20204;-49
2022/06/24 08:36:26;;;;;;;2.92;0.63;;;24.80;99.90;;;;;;5046490;28;20236;-48
2022/06/24 08:38:57;;;;;;;2.45;0.60;;;24.70;99.90;;;;;;5043547;28;20223;-48
2022/06/24 08:41:28;;;;;;;1.55;0.50;;;24.60;99.90;;;;;;5043547;28;20201;-47
2022/06/24 08:43:56;;;;;;;3.10;1.05;;;24.50;99.80;;;;;;5045046;28;20621;-48
2022/06/24 08:46:25;;;;;;;5.75;1.65;;;24.30;99.80;;;;;;5045765;28;20267;-47
2022/06/24 08:48:58;;;;;;;2.08;0.70;;;24.00;99.90;;;;;;5042626;28;20298;-47
2022/06/24 08:51:27;;;;;;;3.22;1.10;;;23.90;99.90;;;;;;5049782;28;20240;-35
2022/06/24 08:54:00;;;;;;;3.35;0.80;;;23.80;99.80;;;;;;5043877;28;20204;-36
2022/06/24 08:56:51;;;;;;;3.35;1.20;;;23.70;99.90;;;;;;5040332;28;20208;-35
2022/06/24 08:59:21;;;;;;;3.42;1.10;;;23.50;99.90;;;;;;5040961;28;20354;-36
2022/06/24 09:01:49;;;;;;;1.00;0.60;;;23.50;99.90;;;;;;5045549;28;20208;-35
2022/06/24 09:04:23;;;;;;;7.40;1.35;;;23.40;99.90;;;;;;5043346;28;20222;-35
2022/06/24 09:06:59;;;;;;;1.30;0.75;;;23.40;99.90;;;;;;5043711;28;20284;-46
2022/06/24 09:09:29;;;;;;;8.35;2.53;;;23.40;99.90;;;;;;5042865;28;20269;-46
2022/06/24 09:11:57;;;;;;;14.00;2.45;;;23.30;99.90;;;;;;5043144;28;20307;-47
2022/06/24 09:14:45;;;;;;;4.55;1.20;;;23.30;99.90;;;;;;5044221;28;20664;-46
2022/06/24 09:17:26;;;;;;;1.15;0.60;;;23.30;99.90;;;;;;5042796;28;20258;-47
2022/06/24 09:19:53;;;;;;;3.42;0.60;;;23.20;99.90;;;;;;5037939;28;20232;-47
2022/06/24 09:22:43;;;;;;;5.53;1.20;;;23.20;99.90;;;;;;5042320;28;20728;-35
2022/06/24 09:25:13;;;;;;;5.05;0.73;;;23.20;99.90;;;;;;5038564;28;20266;-35
2022/06/24 09:27:45;;;;;;;6.07;1.50;;;23.20;99.90;;;;;;5041805;28;20728;-35
2022/06/24 09:30:15;;;;;;;1.45;0.80;;;23.20;99.90;;;;;;5044042;28;20215;-35
2022/06/24 09:32:51;;;;;;;4.10;1.23;;;23.20;99.90;;;;;;5045401;28;20204;-35
2022/06/24 09:35:39;;;;;;;2.42;0.63;;;23.30;99.90;;;;;;5043743;28;20204;-35
2022/06/24 09:38:06;;;;;;;2.33;0.73;;;23.30;99.90;;;;;;5043508;28;20240;-35
2022/06/24 09:40:36;;;;;;;0.90;0.77;;;23.30;99.90;;;;;;5043728;28;20228;-35
2022/06/24 09:43:09;;;;;;;10.20;1.75;;;23.30;99.90;;;;;;5037411;28;20753;-35
2022/06/24 09:45:51;;;;;;;13.27;2.58;;;23.30;99.90;;;;;;5039783;28;20208;-35
2022/06/24 09:48:28;;;;;;;8.23;1.40;;;23.20;99.90;;;;;;5033625;28;20203;-35
2022/06/24 09:51:04;;;;;;;0.60;0.60;;;23.20;99.90;;;;;;5042314;28;20208;-35
2022/06/24 09:53:37;;;;;;;0.35;0.35;;;23.20;99.90;;;;;;5042166;28;20299;-35
2022/06/24 09:56:08;;;;;;;2.33;0.60;;;23.20;99.90;;;;;;5039382;28;20204;-35
2022/06/24 09:58:43;;;;;;;0.40;0.32;;;23.20;99.90;;;;;;5043228;28;20215;-35
2022/06/24 10:01:15;;;;;;;0.80;0.35;;;23.20;99.90;;;;;;5042635;28;20222;-35
2022/06/24 10:03:49;;;;;;;0.65;0.40;;;23.20;99.90;;;;;;5056093;28;20209;-35
2022/06/24 10:06:19;;;;;;;3.20;0.38;;;23.20;99.90;;;;;;5044410;28;20211;-35
2022/06/24 10:08:46;;;;;;;1.05;0.50;;;23.20;99.90;;;;;;5043395;28;20215;-35
2022/06/24 10:11:42;;;;;;;0.80;0.50;;;23.20;99.90;;;;;;5058812;28;21041;-47
2022/06/24 10:14:12;;;;;;;0.40;0.40;;;23.20;99.90;;;;;;5032791;28;20609;-35
2022/06/24 10:16:42;;;;;;;2.20;0.50;;;23.20;99.90;;;;;;5048306;28;20201;-35
2022/06/24 10:19:13;;;;;;;0.57;0.45;;;23.20;99.90;;;;;;5045794;28;20224;-47
2022/06/24 10:21:51;;;;;;;1.27;0.57;;;23.20;99.90;;;;;;5038080;28;20200;-47
2022/06/24 10:24:21;;;;;;;0.50;0.50;;;23.30;99.90;;;;;;5041173;28;20208;-48
2022/06/24 10:26:51;;;;;;;0.85;0.68;;;23.40;99.90;;;;;;5062817;28;20208;-48
2022/06/24 10:29:22;;;;;;;0.70;0.50;;;23.50;99.90;;;;;;5079061;28;20821;-47
2022/06/24 10:31:56;;;;;;;0.68;0.68;;;23.60;99.90;;;;;;5044445;28;20200;-48
2022/06/24 10:34:32;;;;;;;1.55;0.70;;;23.70;99.90;;;;;;5050659;28;20204;-48
2022/06/24 10:37:18;;;;;;;1.17;0.65;;;23.80;99.90;;;;;;5049220;28;20644;-48
2022/06/24 10:39:52;;;;;;;2.75;1.45;;;23.90;99.90;;;;;;5043644;28;20764;-48
2022/06/24 10:42:24;;;;;;;0.85;0.65;;;23.90;99.90;;;;;;5044850;28;20200;-48
2022/06/24 10:44:51;;;;;;;0.65;0.60;;;24.00;99.90;;;;;;5048414;28;20212;-48
2022/06/24 10:47:34;;;;;;;0.77;0.70;;;24.10;99.90;;;;;;5048257;28;20234;-48
2022/06/24 10:50:02;;;;;;;2.50;1.05;;;24.20;99.90;;;;;;5039751;28;20207;-48
2022/06/24 10:52:37;;;;;;;0.98;0.95;;;24.30;99.90;;;;;;5047338;28;20239;-48
2022/06/24 10:55:17;;;;;;;1.10;1.00;;;24.40;99.90;;;;;;5047847;28;20790;-48
2022/06/24 10:57:52;;;;;;;1.23;1.13;;;24.50;99.90;;;;;;5049883;28;20207;-48
2022/06/24 11:00:28;;;;;;;2.88;1.30;;;24.50;99.90;;;;;;5043342;28;20224;-48
2022/06/24 11:03:04;;;;;;;3.83;1.40;;;24.60;99.90;;;;;;5044821;28;20245;-48
2022/06/24 11:05:34;;;;;;;4.15;2.10;;;24.70;99.90;;;;;;5046461;28;20713;-48
2022/06/24 11:08:05;;;;;;;7.50;3.53;;;24.70;99.90;;;;;;5047735;28;20594;-48
2022/06/24 11:10:32;;;;;;;3.75;2.90;;;24.70;99.90;;;;;;5043876;28;20804;-48
2022/06/24 11:13:02;;;;;;;3.33;2.97;;;24.80;99.90;;;;;;5047070;28;20220;-48
2022/06/24 11:15:47;;;;;;;5.25;3.20;;;24.80;99.90;;;;;;5045097;28;20204;-48
2022/06/24 11:18:35;;;;;;;7.15;5.25;;;24.90;99.90;;;;;;5046771;28;20257;-48
2022/06/24 11:21:09;;;;;;;5.13;4.63;;;25.00;99.90;;;;;;5046081;28;20591;-48
2022/06/24 11:23:38;;;;;;;5.13;4.72;;;25.00;99.90;;;;;;5044378;28;20626;-48
2022/06/24 11:26:15;;;;;;;4.63;4.20;;;25.00;99.90;;;;;;5044465;28;20196;-48
2022/06/24 11:28:51;;;;;;;8.98;5.30;;;25.00;99.90;;;;;;5046106;28;20214;-48
2022/06/24 11:31:33;;;;;;;5.20;2.45;;;25.10;99.90;;;;;;5043588;28;20244;-48
2022/06/24 11:34:00;;;;;;;1.30;1.20;;;25.00;99.90;;;;;;5044888;28;20196;-48
2022/06/24 11:36:33;;;;;;;1.00;1.00;;;25.00;99.90;;;;;;5046122;28;20522;-48
2022/06/24 11:39:05;;;;;;;1.08;0.90;;;25.00;99.90;;;;;;5044199;28;20786;-48
2022/06/24 11:41:37;;;;;;;1.50;0.80;;;25.00;99.90;;;;;;5046562;28;20207;-48
2022/06/24 11:44:35;;;;;;;0.80;0.80;;;24.90;99.90;;;;;;5044259;28;20204;-49
2022/06/24 11:47:05;;;;;;;0.60;0.60;;;25.00;99.90;;;;;;5041108;28;20212;-49
2022/06/24 11:49:34;;;;;;;4.35;1.65;;;24.80;99.90;;;;;;5042386;28;20629;-49
2022/06/24 11:52:04;;;;;;;3.10;1.02;;;24.80;99.90;;;;;;5045745;28;20212;-49
2022/06/24 11:54:34;;;;;;;1.45;0.55;;;24.70;99.90;;;;;;5040662;28;21130;-49
2022/06/24 11:57:01;;;;;;;0.60;0.60;;;24.70;99.90;;;;;;5042191;28;20226;-49
2022/06/24 11:59:31;;;;;;;1.08;0.65;;;24.70;99.90;;;;;;5041787;28;20343;-49
2022/06/24 12:01:59;;;;;;;0.70;0.70;;;24.70;99.90;;;;;;5046166;28;20196;-48
2022/06/24 12:04:30;;;;;;;0.82;0.77;;;24.70;99.90;;;;;;5046086;28;20200;-48
2022/06/24 12:07:08;;;;;;;0.85;0.55;;;24.60;99.90;;;;;;5044230;28;20670;-48
2022/06/24 12:09:40;;;;;;;0.70;0.50;;;24.60;99.90;;;;;;5045107;28;20209;-48
2022/06/24 12:12:09;;;;;;;0.93;0.50;;;24.60;99.90;;;;;;5046504;28;20212;-48
2022/06/24 12:14:38;;;;;;;0.60;0.60;;;24.60;99.90;;;;;;5045093;28;20412;-48
2022/06/24 12:17:10;;;;;;;0.57;0.50;;;24.60;99.90;;;;;;5048567;28;20277;-49
2022/06/24 12:19:59;;;;;;;3.35;1.27;;;24.60;99.90;;;;;;5043473;28;20626;-49
2022/06/24 12:22:29;;;;;;;3.45;0.85;;;24.60;99.90;;;;;;5046259;28;20327;-48
2022/06/24 12:25:10;;;;;;;1.85;0.80;;;24.70;99.90;;;;;;5044646;28;20188;-48
2022/06/24 12:27:39;;;;;;;1.05;0.77;;;24.70;99.90;;;;;;5045430;28;20573;-48
2022/06/24 12:30:18;;;;;;;1.23;0.77;;;24.80;99.90;;;;;;5044305;28;20801;-48
2022/06/24 12:32:56;;;;;;;1.85;0.70;;;24.80;99.90;;;;;;5046195;28;20231;-48
2022/06/24 12:35:35;;;;;;;1.05;0.95;;;24.80;99.90;;;;;;5043440;28;20207;-50
2022/06/24 12:38:12;;;;;;;0.52;0.52;;;24.80;99.90;;;;;;5053395;28;20239;-48
2022/06/24 12:40:42;;;;;;;0.73;0.70;;;24.80;99.90;;;;;;5042882;28;20235;-48
2022/06/24 12:43:15;;;;;;;0.95;0.90;;;24.80;99.90;;;;;;5046793;28;20544;-48
2022/06/24 12:45:43;;;;;;;0.88;0.70;;;24.90;99.90;;;;;;5043053;28;20196;-49
2022/06/24 12:51:11;;;;;;;1.02;0.80;;;25.00;99.90;;;;;;5040357;28;20232;-49
2022/06/24 12:53:45;;;;;;;0.65;0.57;;;25.00;99.90;;;;;;5044897;28;20275;-49
2022/06/24 12:56:18;;;;;;;1.65;0.85;;;25.10;99.90;;;;;;5040265;28;20334;-49
2022/06/24 12:58:51;;;;;;;1.30;0.95;;;25.10;99.90;;;;;;5045286;28;20232;-49
2022/06/24 13:01:25;;;;;;;1.00;0.93;;;25.20;99.90;;;;;;5039760;28;20216;-49
2022/06/24 13:03:52;;;;;;;1.77;0.80;;;25.30;99.90;;;;;;5039490;28;20207;-49
2022/06/24 13:06:24;;;;;;;0.80;0.80;;;25.30;99.90;;;;;;5040420;28;20215;-49
2022/06/24 13:08:52;;;;;;;1.73;0.77;;;25.30;99.90;;;;;;5038113;28;20584;-49
2022/06/24 13:11:19;;;;;;;1.20;1.10;;;25.40;99.90;;;;;;5040393;28;20199;-49
2022/06/24 13:13:51;;;;;;;2.95;0.90;;;25.50;99.90;;;;;;5040351;28;20295;-49
2022/06/24 13:16:20;;;;;;;1.15;1.05;;;25.60;99.90;;;;;;5039358;28;20257;-49